sensor_id;sensor_type;location;lat;lon;timestamp;pressure;altitude;pressure_sealevel;temperature;humidity
76074;BME280;64776;42.636;24.358;2023-02-27T00:00:45;89456.13;;;8.75;72.74
76074;BME280;64776;42.636;24.358;2023-02-27T00:03:47;89463.44;;;8.86;71.85
76074;BME280;64776;42.636;24.358;2023-02-27T00:06:48;89461.28;;;8.90;72.63
76074;BME280;64776;42.636;24.358;2023-02-27T00:09:49;89454.72;;;8.85;72.77
76074;BME280;64776;42.636;24.358;2023-02-27T00:12:50;89460.53;;;8.84;72.37
76074;BME280;64776;42.636;24.358;2023-02-27T00:15:50;89458.81;;;8.81;72.70
76074;BME280;64776;42.636;24.358;2023-02-27T00:18:53;89453.06;;;8.93;72.54
76074;BME280;64776;42.636;24.358;2023-02-27T00:21:56;89456.47;;;9.05;71.70
76074;BME280;64776;42.636;24.358;2023-02-27T00:24:57;89453.81;;;9.05;72.10
76074;BME280;64776;42.636;24.358;2023-02-27T00:27:58;89439.06;;;9.04;71.36
76074;BME280;64776;42.636;24.358;2023-02-27T00:30:58;89436.38;;;8.98;72.40
76074;BME280;64776;42.636;24.358;2023-02-27T00:34:01;89425.97;;;8.95;71.94
76074;BME280;64776;42.636;24.358;2023-02-27T00:37:02;89445.31;;;8.90;72.50
76074;BME280;64776;42.636;24.358;2023-02-27T00:40:04;89431.47;;;8.80;73.51
76074;BME280;64776;42.636;24.358;2023-02-27T00:43:05;89441.59;;;8.76;73.83
76074;BME280;64776;42.636;24.358;2023-02-27T00:46:05;89445.25;;;8.79;74.09
76074;BME280;64776;42.636;24.358;2023-02-27T00:49:07;89446.25;;;8.87;73.30
76074;BME280;64776;42.636;24.358;2023-02-27T00:52:08;89447.19;;;8.78;74.17
76074;BME280;64776;42.636;24.358;2023-02-27T00:55:09;89434.63;;;8.79;74.05
76074;BME280;64776;42.636;24.358;2023-02-27T00:58:10;89447.66;;;8.77;74.54
76074;BME280;64776;42.636;24.358;2023-02-27T01:01:11;89439.88;;;8.68;75.00
76074;BME280;64776;42.636;24.358;2023-02-27T01:04:14;89443.03;;;8.72;74.91
76074;BME280;64776;42.636;24.358;2023-02-27T01:07:15;89450.47;;;8.62;75.10
76074;BME280;64776;42.636;24.358;2023-02-27T01:10:15;89437.63;;;8.55;75.25
76074;BME280;64776;42.636;24.358;2023-02-27T01:13:16;89437.56;;;8.44;75.53
76074;BME280;64776;42.636;24.358;2023-02-27T01:16:17;89438.06;;;8.43;76.21
76074;BME280;64776;42.636;24.358;2023-02-27T01:19:20;89445.97;;;8.32;76.39
76074;BME280;64776;42.636;24.358;2023-02-27T01:22:20;89451.00;;;8.30;76.99
76074;BME280;64776;42.636;24.358;2023-02-27T01:25:21;89448.09;;;8.28;77.02
76074;BME280;64776;42.636;24.358;2023-02-27T01:28:22;89448.09;;;8.28;77.00
76074;BME280;64776;42.636;24.358;2023-02-27T01:31:23;89453.94;;;8.32;77.16
76074;BME280;64776;42.636;24.358;2023-02-27T01:34:25;89466.25;;;8.35;77.38
76074;BME280;64776;42.636;24.358;2023-02-27T01:37:26;89455.88;;;8.37;77.00
76074;BME280;64776;42.636;24.358;2023-02-27T01:40:27;89460.00;;;8.38;77.31
76074;BME280;64776;42.636;24.358;2023-02-27T01:43:27;89467.81;;;8.47;75.15
76074;BME280;64776;42.636;24.358;2023-02-27T01:46:29;89481.84;;;8.53;74.78
76074;BME280;64776;42.636;24.358;2023-02-27T01:49:33;89489.78;;;8.47;74.35
76074;BME280;64776;42.636;24.358;2023-02-27T01:52:35;89475.06;;;8.52;74.77
76074;BME280;64776;42.636;24.358;2023-02-27T01:55:37;89473.28;;;8.38;73.95
76074;BME280;64776;42.636;24.358;2023-02-27T01:58:39;89484.41;;;8.36;73.66
76074;BME280;64776;42.636;24.358;2023-02-27T02:01:40;89471.31;;;8.33;74.10
76074;BME280;64776;42.636;24.358;2023-02-27T02:04:43;89477.13;;;8.31;73.54
76074;BME280;64776;42.636;24.358;2023-02-27T02:07:44;89479.00;;;8.25;74.47
76074;BME280;64776;42.636;24.358;2023-02-27T02:10:46;89480.00;;;8.28;73.72
76074;BME280;64776;42.636;24.358;2023-02-27T02:13:48;89478.88;;;8.14;74.66
76074;BME280;64776;42.636;24.358;2023-02-27T02:17:13;89488.63;;;8.22;74.55
76074;BME280;64776;42.636;24.358;2023-02-27T02:20:46;89482.34;;;8.20;74.88
76074;BME280;64776;42.636;24.358;2023-02-27T02:27:34;89496.06;;;8.18;74.69
76074;BME280;64776;42.636;24.358;2023-02-27T02:34:53;89490.97;;;8.15;75.09
76074;BME280;64776;42.636;24.358;2023-02-27T02:41:48;89495.81;;;8.16;74.55
76074;BME280;64776;42.636;24.358;2023-02-27T02:44:57;89499.69;;;8.15;75.41
76074;BME280;64776;42.636;24.358;2023-02-27T02:48:09;89497.47;;;8.14;75.01
76074;BME280;64776;42.636;24.358;2023-02-27T02:51:18;89511.50;;;8.14;74.50
76074;BME280;64776;42.636;24.358;2023-02-27T02:54:27;89514.72;;;8.24;74.17
76074;BME280;64776;42.636;24.358;2023-02-27T02:57:33;89523.63;;;8.21;74.52
76074;BME280;64776;42.636;24.358;2023-02-27T03:00:41;89520.69;;;8.13;74.85
76074;BME280;64776;42.636;24.358;2023-02-27T03:03:48;89519.22;;;8.12;75.18
76074;BME280;64776;42.636;24.358;2023-02-27T03:06:54;89516.78;;;8.09;75.57
76074;BME280;64776;42.636;24.358;2023-02-27T03:10:03;89527.66;;;8.11;75.13
76074;BME280;64776;42.636;24.358;2023-02-27T03:13:07;89529.31;;;8.08;74.73
76074;BME280;64776;42.636;24.358;2023-02-27T03:16:12;89530.28;;;8.05;74.91
76074;BME280;64776;42.636;24.358;2023-02-27T03:19:17;89527.38;;;8.03;75.88
76074;BME280;64776;42.636;24.358;2023-02-27T03:22:23;89529.06;;;8.06;75.73
76074;BME280;64776;42.636;24.358;2023-02-27T03:25:28;89533.50;;;8.15;74.67
76074;BME280;64776;42.636;24.358;2023-02-27T03:28:32;89540.78;;;8.20;74.79
76074;BME280;64776;42.636;24.358;2023-02-27T03:31:39;89512.72;;;8.13;74.52
76074;BME280;64776;42.636;24.358;2023-02-27T03:34:42;89527.97;;;8.18;73.97
76074;BME280;64776;42.636;24.358;2023-02-27T03:37:51;89550.75;;;8.25;73.83
76074;BME280;64776;42.636;24.358;2023-02-27T03:41:02;89580.28;;;8.33;73.17
76074;BME280;64776;42.636;24.358;2023-02-27T03:44:10;89608.56;;;8.30;74.25
76074;BME280;64776;42.636;24.358;2023-02-27T03:47:13;89632.91;;;8.29;73.36
76074;BME280;64776;42.636;24.358;2023-02-27T03:50:14;89658.16;;;8.39;73.37
76074;BME280;64776;42.636;24.358;2023-02-27T03:53:21;89719.00;;;7.56;74.52
76074;BME280;64776;42.636;24.358;2023-02-27T03:56:30;89772.84;;;6.54;75.58
76074;BME280;64776;42.636;24.358;2023-02-27T03:59:32;89753.16;;;5.61;76.57
76074;BME280;64776;42.636;24.358;2023-02-27T04:02:34;89743.53;;;5.16;78.59
76074;BME280;64776;42.636;24.358;2023-02-27T04:05:35;89754.88;;;5.08;80.62
76074;BME280;64776;42.636;24.358;2023-02-27T04:08:44;89752.13;;;5.02;80.77
76074;BME280;64776;42.636;24.358;2023-02-27T04:12:04;89766.28;;;4.72;82.61
76074;BME280;64776;42.636;24.358;2023-02-27T04:15:18;89763.78;;;4.77;84.35
76074;BME280;64776;42.636;24.358;2023-02-27T04:18:29;89786.81;;;4.86;83.68
76074;BME280;64776;42.636;24.358;2023-02-27T04:21:37;89801.03;;;4.97;83.74
76074;BME280;64776;42.636;24.358;2023-02-27T04:24:50;89811.25;;;5.14;83.12
76074;BME280;64776;42.636;24.358;2023-02-27T04:27:57;89813.94;;;5.05;83.50
76074;BME280;64776;42.636;24.358;2023-02-27T04:31:07;89801.44;;;5.05;83.90
76074;BME280;64776;42.636;24.358;2023-02-27T04:34:14;89799.88;;;4.99;81.82
76074;BME280;64776;42.636;24.358;2023-02-27T04:37:22;89817.75;;;5.04;82.77
76074;BME280;64776;42.636;24.358;2023-02-27T04:40:28;89792.91;;;5.19;83.51
76074;BME280;64776;42.636;24.358;2023-02-27T04:43:34;89788.91;;;5.24;81.41
76074;BME280;64776;42.636;24.358;2023-02-27T04:46:39;89784.84;;;5.46;77.57
76074;BME280;64776;42.636;24.358;2023-02-27T04:49:44;89803.00;;;5.62;77.66
76074;BME280;64776;42.636;24.358;2023-02-27T04:52:49;89785.81;;;5.58;79.10
76074;BME280;64776;42.636;24.358;2023-02-27T04:55:54;89771.97;;;5.63;78.98
76074;BME280;64776;42.636;24.358;2023-02-27T04:59:01;89775.56;;;5.51;81.26
76074;BME280;64776;42.636;24.358;2023-02-27T05:02:07;89771.28;;;5.53;81.92
76074;BME280;64776;42.636;24.358;2023-02-27T05:05:13;89759.66;;;5.60;81.97
76074;BME280;64776;42.636;24.358;2023-02-27T05:08:19;89734.66;;;5.28;83.62
76074;BME280;64776;42.636;24.358;2023-02-27T05:11:26;89752.03;;;5.20;83.36
76074;BME280;64776;42.636;24.358;2023-02-27T05:14:33;89784.91;;;5.28;83.62
76074;BME280;64776;42.636;24.358;2023-02-27T05:17:37;89806.03;;;4.95;84.21
76074;BME280;64776;42.636;24.358;2023-02-27T05:20:51;89814.53;;;5.00;84.20
76074;BME280;64776;42.636;24.358;2023-02-27T05:24:05;89816.31;;;5.03;84.98
76074;BME280;64776;42.636;24.358;2023-02-27T05:27:28;89829.53;;;4.84;86.73
76074;BME280;64776;42.636;24.358;2023-02-27T05:30:35;89837.34;;;4.79;88.08
76074;BME280;64776;42.636;24.358;2023-02-27T05:33:42;89838.53;;;4.69;89.29
76074;BME280;64776;42.636;24.358;2023-02-27T05:36:51;89848.63;;;4.70;88.52
76074;BME280;64776;42.636;24.358;2023-02-27T05:39:52;89857.00;;;4.87;89.03
76074;BME280;64776;42.636;24.358;2023-02-27T05:42:59;89858.59;;;4.93;88.52
76074;BME280;64776;42.636;24.358;2023-02-27T05:46:05;89855.81;;;4.97;87.74
76074;BME280;64776;42.636;24.358;2023-02-27T05:49:13;89865.22;;;4.98;87.77
76074;BME280;64776;42.636;24.358;2023-02-27T05:52:18;89870.63;;;5.13;86.06
76074;BME280;64776;42.636;24.358;2023-02-27T05:55:24;89859.47;;;4.90;87.64
76074;BME280;64776;42.636;24.358;2023-02-27T05:58:28;89851.88;;;4.83;87.79
76074;BME280;64776;42.636;24.358;2023-02-27T06:01:31;89852.47;;;4.69;88.92
76074;BME280;64776;42.636;24.358;2023-02-27T06:04:33;89843.06;;;4.77;88.13
76074;BME280;64776;42.636;24.358;2023-02-27T06:07:34;89848.66;;;4.79;88.19
76074;BME280;64776;42.636;24.358;2023-02-27T06:10:35;89839.97;;;4.88;88.25
76074;BME280;64776;42.636;24.358;2023-02-27T06:13:36;89856.25;;;5.05;87.71
76074;BME280;64776;42.636;24.358;2023-02-27T06:16:38;89863.72;;;5.06;87.15
76074;BME280;64776;42.636;24.358;2023-02-27T06:19:39;89866.78;;;5.14;87.71
76074;BME280;64776;42.636;24.358;2023-02-27T06:22:40;89860.00;;;5.22;87.18
76074;BME280;64776;42.636;24.358;2023-02-27T06:25:41;89857.66;;;5.33;86.61
76074;BME280;64776;42.636;24.358;2023-02-27T06:28:41;89851.72;;;5.47;86.76
76074;BME280;64776;42.636;24.358;2023-02-27T06:31:44;89857.00;;;5.47;86.56
76074;BME280;64776;42.636;24.358;2023-02-27T06:34:44;89859.19;;;5.48;86.66
76074;BME280;64776;42.636;24.358;2023-02-27T06:37:45;89866.34;;;5.66;86.71
76074;BME280;64776;42.636;24.358;2023-02-27T06:40:46;89865.34;;;5.54;86.98
76074;BME280;64776;42.636;24.358;2023-02-27T06:43:47;89882.63;;;5.32;89.35
76074;BME280;64776;42.636;24.358;2023-02-27T06:46:49;89876.63;;;5.31;88.97
76074;BME280;64776;42.636;24.358;2023-02-27T06:49:50;89864.44;;;5.25;90.26
76074;BME280;64776;42.636;24.358;2023-02-27T06:52:50;89860.88;;;5.37;91.09
76074;BME280;64776;42.636;24.358;2023-02-27T06:55:51;89865.22;;;5.58;88.94
76074;BME280;64776;42.636;24.358;2023-02-27T06:58:52;89854.84;;;5.69;88.46
76074;BME280;64776;42.636;24.358;2023-02-27T07:01:54;89855.53;;;5.88;88.54
76074;BME280;64776;42.636;24.358;2023-02-27T07:04:55;89862.09;;;6.01;87.40
76074;BME280;64776;42.636;24.358;2023-02-27T07:07:56;89854.06;;;6.19;87.13
76074;BME280;64776;42.636;24.358;2023-02-27T07:10:57;89850.41;;;6.40;86.73
76074;BME280;64776;42.636;24.358;2023-02-27T07:13:57;89852.34;;;6.54;85.74
76074;BME280;64776;42.636;24.358;2023-02-27T07:17:01;89870.59;;;6.76;85.51
76074;BME280;64776;42.636;24.358;2023-02-27T07:20:02;89863.50;;;6.97;84.73
76074;BME280;64776;42.636;24.358;2023-02-27T07:23:03;89870.19;;;7.07;82.20
76074;BME280;64776;42.636;24.358;2023-02-27T07:26:04;89882.81;;;7.12;83.08
76074;BME280;64776;42.636;24.358;2023-02-27T07:29:05;89879.28;;;7.15;82.02
76074;BME280;64776;42.636;24.358;2023-02-27T07:32:08;89883.38;;;7.30;81.79
76074;BME280;64776;42.636;24.358;2023-02-27T07:35:09;89882.31;;;7.37;82.36
76074;BME280;64776;42.636;24.358;2023-02-27T07:38:10;89886.53;;;7.44;80.55
76074;BME280;64776;42.636;24.358;2023-02-27T07:41:11;89896.66;;;7.45;80.99
76074;BME280;64776;42.636;24.358;2023-02-27T07:44:12;89893.47;;;7.56;82.02
76074;BME280;64776;42.636;24.358;2023-02-27T07:47:14;89900.22;;;7.42;81.78
76074;BME280;64776;42.636;24.358;2023-02-27T07:50:15;89902.25;;;7.76;79.60
76074;BME280;64776;42.636;24.358;2023-02-27T07:53:16;89904.69;;;7.94;81.10
76074;BME280;64776;42.636;24.358;2023-02-27T07:56:18;89917.22;;;8.08;81.15
76074;BME280;64776;42.636;24.358;2023-02-27T07:59:19;89923.47;;;8.20;80.67
76074;BME280;64776;42.636;24.358;2023-02-27T08:02:21;89918.09;;;8.35;80.02
76074;BME280;64776;42.636;24.358;2023-02-27T08:05:21;89917.09;;;8.47;78.43
76074;BME280;64776;42.636;24.358;2023-02-27T08:08:22;89922.81;;;8.60;78.07
76074;BME280;64776;42.636;24.358;2023-02-27T08:11:23;89932.81;;;8.85;76.92
76074;BME280;64776;42.636;24.358;2023-02-27T08:14:24;89928.34;;;8.96;75.17
76074;BME280;64776;42.636;24.358;2023-02-27T08:17:26;89926.78;;;9.05;72.48
76074;BME280;64776;42.636;24.358;2023-02-27T08:20:27;89931.63;;;9.06;71.79
76074;BME280;64776;42.636;24.358;2023-02-27T08:23:28;89928.00;;;9.09;70.44
76074;BME280;64776;42.636;24.358;2023-02-27T08:26:28;89929.69;;;9.27;70.13
76074;BME280;64776;42.636;24.358;2023-02-27T08:29:29;89947.22;;;9.39;70.33
76074;BME280;64776;42.636;24.358;2023-02-27T08:32:31;89947.22;;;9.64;69.67
76074;BME280;64776;42.636;24.358;2023-02-27T08:35:32;89963.72;;;9.89;68.79
76074;BME280;64776;42.636;24.358;2023-02-27T08:38:33;89957.03;;;9.99;67.85
76074;BME280;64776;42.636;24.358;2023-02-27T08:41:34;89953.47;;;10.07;66.67
76074;BME280;64776;42.636;24.358;2023-02-27T08:44:35;89953.66;;;10.04;67.08
76074;BME280;64776;42.636;24.358;2023-02-27T08:47:37;89961.09;;;10.20;68.23
76074;BME280;64776;42.636;24.358;2023-02-27T08:50:38;89960.28;;;10.39;64.93
76074;BME280;64776;42.636;24.358;2023-02-27T08:53:39;89964.88;;;10.39;66.69
76074;BME280;64776;42.636;24.358;2023-02-27T08:56:39;89970.56;;;10.52;60.95
76074;BME280;64776;42.636;24.358;2023-02-27T08:59:40;89975.88;;;10.46;64.27
76074;BME280;64776;42.636;24.358;2023-02-27T09:02:42;89970.41;;;10.67;63.89
76074;BME280;64776;42.636;24.358;2023-02-27T09:05:43;89976.38;;;10.87;61.20
76074;BME280;64776;42.636;24.358;2023-02-27T09:08:44;89983.34;;;10.79;59.60
76074;BME280;64776;42.636;24.358;2023-02-27T09:11:45;89983.47;;;11.01;63.54
76074;BME280;64776;42.636;24.358;2023-02-27T09:14:46;89979.50;;;11.28;62.15
76074;BME280;64776;42.636;24.358;2023-02-27T09:17:48;89992.91;;;11.44;58.82
76074;BME280;64776;42.636;24.358;2023-02-27T09:20:50;89996.34;;;11.51;60.14
76074;BME280;64776;42.636;24.358;2023-02-27T09:23:51;89981.56;;;11.61;59.68
76074;BME280;64776;42.636;24.358;2023-02-27T09:26:52;89987.63;;;11.61;60.63
76074;BME280;64776;42.636;24.358;2023-02-27T09:29:53;89997.38;;;11.64;62.53
76074;BME280;64776;42.636;24.358;2023-02-27T09:32:55;90002.94;;;11.61;61.30
76074;BME280;64776;42.636;24.358;2023-02-27T09:35:56;90004.00;;;11.80;56.55
76074;BME280;64776;42.636;24.358;2023-02-27T09:38:57;90005.25;;;11.84;52.37
76074;BME280;64776;42.636;24.358;2023-02-27T09:42:00;90006.47;;;12.00;51.81
76074;BME280;64776;42.636;24.358;2023-02-27T09:45:04;90003.84;;;12.05;52.35
76074;BME280;64776;42.636;24.358;2023-02-27T09:48:14;90007.50;;;12.13;52.41
76074;BME280;64776;42.636;24.358;2023-02-27T09:51:16;90009.72;;;12.32;53.96
76074;BME280;64776;42.636;24.358;2023-02-27T09:54:18;90004.38;;;12.65;52.42
76074;BME280;64776;42.636;24.358;2023-02-27T09:57:26;90000.00;;;12.51;51.00
76074;BME280;64776;42.636;24.358;2023-02-27T10:00:41;90002.91;;;12.47;52.94
76074;BME280;64776;42.636;24.358;2023-02-27T10:04:01;90011.44;;;12.62;54.39
76074;BME280;64776;42.636;24.358;2023-02-27T10:07:11;90001.94;;;12.39;51.29
76074;BME280;64776;42.636;24.358;2023-02-27T10:10:22;89997.78;;;12.82;55.25
76074;BME280;64776;42.636;24.358;2023-02-27T10:13:38;89995.84;;;12.99;53.10
76074;BME280;64776;42.636;24.358;2023-02-27T10:16:42;90001.44;;;13.18;53.91
76074;BME280;64776;42.636;24.358;2023-02-27T10:19:46;89997.25;;;13.39;53.18
76074;BME280;64776;42.636;24.358;2023-02-27T10:22:49;90000.72;;;13.06;53.31
76074;BME280;64776;42.636;24.358;2023-02-27T10:25:51;90002.19;;;12.85;52.57
76074;BME280;64776;42.636;24.358;2023-02-27T10:28:52;89995.63;;;12.75;53.15
76074;BME280;64776;42.636;24.358;2023-02-27T10:31:57;89991.72;;;12.87;52.30
76074;BME280;64776;42.636;24.358;2023-02-27T10:35:07;89995.31;;;13.23;53.04
76074;BME280;64776;42.636;24.358;2023-02-27T10:38:13;89982.47;;;12.77;54.57
76074;BME280;64776;42.636;24.358;2023-02-27T10:41:17;89981.50;;;12.47;55.74
76074;BME280;64776;42.636;24.358;2023-02-27T10:44:19;89981.00;;;12.60;54.93
76074;BME280;64776;42.636;24.358;2023-02-27T10:47:22;89979.03;;;13.04;54.77
76074;BME280;64776;42.636;24.358;2023-02-27T10:50:26;89969.91;;;13.57;53.85
76074;BME280;64776;42.636;24.358;2023-02-27T10:53:28;89973.53;;;13.60;53.88
76074;BME280;64776;42.636;24.358;2023-02-27T10:56:30;89980.97;;;13.21;53.93
76074;BME280;64776;42.636;24.358;2023-02-27T10:59:32;89977.81;;;12.94;54.31
76074;BME280;64776;42.636;24.358;2023-02-27T11:02:35;89981.72;;;12.93;55.43
76074;BME280;64776;42.636;24.358;2023-02-27T11:05:39;89977.09;;;12.94;54.48
76074;BME280;64776;42.636;24.358;2023-02-27T11:08:39;89982.25;;;12.75;54.70
76074;BME280;64776;42.636;24.358;2023-02-27T11:11:40;89972.25;;;12.54;54.23
76074;BME280;64776;42.636;24.358;2023-02-27T11:14:48;89973.97;;;12.46;55.63
76074;BME280;64776;42.636;24.358;2023-02-27T11:17:49;89978.34;;;12.32;56.21
76074;BME280;64776;42.636;24.358;2023-02-27T11:20:51;89981.25;;;12.40;56.85
76074;BME280;64776;42.636;24.358;2023-02-27T11:23:56;89986.38;;;12.43;56.87
76074;BME280;64776;42.636;24.358;2023-02-27T11:26:58;89981.75;;;12.71;57.22
76074;BME280;64776;42.636;24.358;2023-02-27T11:30:01;89979.50;;;13.20;54.86
76074;BME280;64776;42.636;24.358;2023-02-27T11:33:02;89980.13;;;13.59;55.08
76074;BME280;64776;42.636;24.358;2023-02-27T11:36:06;89983.31;;;14.04;52.78
76074;BME280;64776;42.636;24.358;2023-02-27T11:39:21;89986.97;;;14.06;52.27
76074;BME280;64776;42.636;24.358;2023-02-27T11:42:26;89980.31;;;13.66;50.84
76074;BME280;64776;42.636;24.358;2023-02-27T11:45:30;89988.72;;;13.35;52.49
76074;BME280;64776;42.636;24.358;2023-02-27T11:48:35;89989.00;;;13.21;51.52
76074;BME280;64776;42.636;24.358;2023-02-27T11:51:48;89983.28;;;13.57;52.84
76074;BME280;64776;42.636;24.358;2023-02-27T11:54:54;89993.53;;;13.59;52.47
76074;BME280;64776;42.636;24.358;2023-02-27T11:58:00;89996.47;;;13.50;53.45
76074;BME280;64776;42.636;24.358;2023-02-27T12:01:04;89994.31;;;14.00;55.15
76074;BME280;64776;42.636;24.358;2023-02-27T12:04:10;89994.44;;;14.30;52.93
76074;BME280;64776;42.636;24.358;2023-02-27T12:07:19;89993.06;;;14.83;53.18
76074;BME280;64776;42.636;24.358;2023-02-27T12:10:26;89997.75;;;14.77;51.90
76074;BME280;64776;42.636;24.358;2023-02-27T12:13:30;90006.56;;;14.36;52.38
76074;BME280;64776;42.636;24.358;2023-02-27T12:16:36;90001.34;;;14.09;53.25
76074;BME280;64776;42.636;24.358;2023-02-27T12:19:43;90007.72;;;14.00;53.29
76074;BME280;64776;42.636;24.358;2023-02-27T12:22:51;90002.31;;;13.59;53.55
76074;BME280;64776;42.636;24.358;2023-02-27T12:25:56;90003.78;;;13.49;54.49
76074;BME280;64776;42.636;24.358;2023-02-27T12:29:02;90009.41;;;13.40;53.69
76074;BME280;64776;42.636;24.358;2023-02-27T12:32:08;90008.97;;;13.20;56.25
76074;BME280;64776;42.636;24.358;2023-02-27T12:35:17;90004.84;;;13.07;57.22
76074;BME280;64776;42.636;24.358;2023-02-27T12:38:21;90008.47;;;13.21;57.67
76074;BME280;64776;42.636;24.358;2023-02-27T12:41:34;90007.28;;;13.11;58.61
76074;BME280;64776;42.636;24.358;2023-02-27T12:48:17;90003.41;;;13.12;59.75
76074;BME280;64776;42.636;24.358;2023-02-27T12:51:29;90004.63;;;13.17;61.03
76074;BME280;64776;42.636;24.358;2023-02-27T12:54:46;90013.31;;;13.34;59.72
76074;BME280;64776;42.636;24.358;2023-02-27T12:58:11;90004.31;;;13.37;57.31
76074;BME280;64776;42.636;24.358;2023-02-27T13:01:23;89998.19;;;13.42;58.80
76074;BME280;64776;42.636;24.358;2023-02-27T13:04:30;89997.53;;;13.25;57.96
76074;BME280;64776;42.636;24.358;2023-02-27T13:07:40;89994.63;;;13.06;59.20
76074;BME280;64776;42.636;24.358;2023-02-27T13:10:50;89995.13;;;12.82;60.64
76074;BME280;64776;42.636;24.358;2023-02-27T13:13:56;89997.56;;;12.64;58.75
76074;BME280;64776;42.636;24.358;2023-02-27T13:17:03;90002.16;;;12.96;60.43
76074;BME280;64776;42.636;24.358;2023-02-27T13:20:23;90003.25;;;13.67;58.94
76074;BME280;64776;42.636;24.358;2023-02-27T13:23:44;90001.94;;;13.85;57.23
76074;BME280;64776;42.636;24.358;2023-02-27T13:26:57;89995.16;;;13.73;56.65
76074;BME280;64776;42.636;24.358;2023-02-27T13:30:10;89992.91;;;13.20;56.70
76074;BME280;64776;42.636;24.358;2023-02-27T13:33:19;90008.25;;;13.19;59.21
76074;BME280;64776;42.636;24.358;2023-02-27T13:36:24;90009.00;;;12.86;56.74
76074;BME280;64776;42.636;24.358;2023-02-27T13:39:50;89998.31;;;12.75;57.75
76074;BME280;64776;42.636;24.358;2023-02-27T13:42:55;90004.84;;;12.63;58.22
76074;BME280;64776;42.636;24.358;2023-02-27T13:45:58;90000.97;;;12.48;58.41
76074;BME280;64776;42.636;24.358;2023-02-27T13:49:21;89989.53;;;12.47;56.96
76074;BME280;64776;42.636;24.358;2023-02-27T13:52:27;89986.13;;;12.41;57.11
76074;BME280;64776;42.636;24.358;2023-02-27T13:55:29;89974.91;;;12.43;56.21
76074;BME280;64776;42.636;24.358;2023-02-27T13:58:32;89972.25;;;12.54;55.49
76074;BME280;64776;42.636;24.358;2023-02-27T14:01:33;89978.84;;;12.36;55.76
76074;BME280;64776;42.636;24.358;2023-02-27T14:04:35;89977.63;;;12.26;57.11
76074;BME280;64776;42.636;24.358;2023-02-27T14:07:52;89976.66;;;12.40;55.94
76074;BME280;64776;42.636;24.358;2023-02-27T14:10:57;89979.56;;;12.48;54.60
76074;BME280;64776;42.636;24.358;2023-02-27T14:14:03;89972.75;;;12.41;54.83
76074;BME280;64776;42.636;24.358;2023-02-27T14:17:06;89972.25;;;12.43;55.14
76074;BME280;64776;42.636;24.358;2023-02-27T14:24:00;89964.22;;;12.59;54.28
76074;BME280;64776;42.636;24.358;2023-02-27T14:27:02;89973.94;;;12.51;56.60
76074;BME280;64776;42.636;24.358;2023-02-27T14:30:24;89979.81;;;12.44;55.94
76074;BME280;64776;42.636;24.358;2023-02-27T14:33:28;89975.16;;;12.22;54.73
76074;BME280;64776;42.636;24.358;2023-02-27T14:36:32;89990.22;;;12.09;56.18
76074;BME280;64776;42.636;24.358;2023-02-27T14:39:36;89988.03;;;12.18;56.58
76074;BME280;64776;42.636;24.358;2023-02-27T14:42:45;89991.22;;;12.28;56.01
76074;BME280;64776;42.636;24.358;2023-02-27T14:45:52;89994.88;;;12.36;56.63
76074;BME280;64776;42.636;24.358;2023-02-27T14:48:55;89994.38;;;12.43;56.31
76074;BME280;64776;42.636;24.358;2023-02-27T14:52:10;89996.09;;;12.46;56.53
76074;BME280;64776;42.636;24.358;2023-02-27T14:55:17;90002.19;;;12.30;56.62
76074;BME280;64776;42.636;24.358;2023-02-27T14:58:20;90014.50;;;11.89;57.30
76074;BME280;64776;42.636;24.358;2023-02-27T15:01:22;90018.56;;;11.79;58.35
76074;BME280;64776;42.636;24.358;2023-02-27T15:04:27;90016.53;;;11.63;58.65
76074;BME280;64776;42.636;24.358;2023-02-27T15:07:40;90023.13;;;11.62;59.42
76074;BME280;64776;42.636;24.358;2023-02-27T15:10:53;90017.53;;;11.60;59.18
76074;BME280;64776;42.636;24.358;2023-02-27T15:14:00;90017.94;;;11.41;59.78
76074;BME280;64776;42.636;24.358;2023-02-27T15:17:16;90036.63;;;11.41;59.80
76074;BME280;64776;42.636;24.358;2023-02-27T15:20:26;90032.47;;;11.40;60.58
76074;BME280;64776;42.636;24.358;2023-02-27T15:23:28;90042.66;;;11.36;59.81
76074;BME280;64776;42.636;24.358;2023-02-27T15:26:32;90044.13;;;11.37;60.39
76074;BME280;64776;42.636;24.358;2023-02-27T15:29:37;90051.63;;;11.33;60.07
76074;BME280;64776;42.636;24.358;2023-02-27T15:32:40;90066.44;;;11.34;60.91
76074;BME280;64776;42.636;24.358;2023-02-27T15:35:44;90069.75;;;11.18;60.82
76074;BME280;64776;42.636;24.358;2023-02-27T15:39:06;90067.72;;;11.02;62.39
76074;BME280;64776;42.636;24.358;2023-02-27T15:42:18;90071.59;;;11.01;62.05
76074;BME280;64776;42.636;24.358;2023-02-27T15:45:21;90072.16;;;10.80;63.02
76074;BME280;64776;42.636;24.358;2023-02-27T15:48:27;90072.88;;;10.80;63.77
76074;BME280;64776;42.636;24.358;2023-02-27T15:51:28;90083.25;;;10.73;63.53
76074;BME280;64776;42.636;24.358;2023-02-27T15:54:32;90083.81;;;10.82;63.41
76074;BME280;64776;42.636;24.358;2023-02-27T15:57:33;90078.06;;;10.89;63.02
76074;BME280;64776;42.636;24.358;2023-02-27T16:00:34;90077.78;;;10.87;63.18
76074;BME280;64776;42.636;24.358;2023-02-27T16:03:39;90078.31;;;10.91;63.86
76074;BME280;64776;42.636;24.358;2023-02-27T16:06:50;90082.38;;;10.87;64.29
76074;BME280;64776;42.636;24.358;2023-02-27T16:10:00;90087.00;;;10.86;65.17
76074;BME280;64776;42.636;24.358;2023-02-27T16:13:30;90080.94;;;10.86;65.33
76074;BME280;64776;42.636;24.358;2023-02-27T16:16:32;90082.09;;;10.79;65.23
76074;BME280;64776;42.636;24.358;2023-02-27T16:19:34;90091.47;;;10.69;66.56
76074;BME280;64776;42.636;24.358;2023-02-27T16:23:00;90092.16;;;10.64;66.97
76074;BME280;64776;42.636;24.358;2023-02-27T16:26:04;90097.88;;;10.51;68.73
76074;BME280;64776;42.636;24.358;2023-02-27T16:29:16;90105.03;;;10.40;68.97
76074;BME280;64776;42.636;24.358;2023-02-27T16:32:21;90115.31;;;10.07;72.88